createdAt,value
2018-09-15T00:01:12.381Z,8.10
2018-09-15T00:03:42.669Z,8.00
2018-09-15T00:06:15.710Z,8.27
2018-09-15T00:08:45.523Z,7.43
2018-09-15T00:11:16.411Z,7.43
2018-09-15T00:13:48.761Z,7.80
2018-09-15T00:16:18.983Z,8.10
2018-09-15T00:18:49.333Z,7.47
2018-09-15T00:21:21.280Z,8.30
2018-09-15T00:23:51.084Z,7.73
2018-09-15T00:26:21.416Z,7.27
2018-09-15T00:28:52.155Z,7.47
2018-09-15T00:31:21.791Z,7.40
2018-09-15T00:33:54.162Z,9.03
2018-09-15T00:36:24.551Z,8.10
2018-09-15T00:38:54.824Z,8.40
2018-09-15T00:41:24.957Z,7.80
2018-09-15T00:43:56.107Z,7.10
2018-09-15T00:46:26.536Z,7.90
2018-09-15T00:48:56.235Z,7.60
2018-09-15T00:51:26.248Z,6.87
2018-09-15T00:53:56.510Z,6.70
2018-09-15T00:56:27.130Z,6.97
2018-09-15T00:58:57.430Z,6.70
2018-09-15T01:01:32.786Z,6.63
2018-09-15T01:04:04.351Z,6.23
2018-09-15T01:06:34.941Z,6.57
2018-09-15T01:09:05.485Z,5.73
2018-09-15T01:11:35.969Z,5.00
2018-09-15T01:14:08.396Z,6.30
2018-09-15T01:16:39.821Z,5.13
2018-09-15T01:19:10.252Z,5.17
2018-09-15T01:21:40.966Z,5.50
2018-09-15T01:24:12.910Z,5.10
2018-09-15T01:26:44.236Z,5.40
2018-09-15T01:29:14.999Z,4.60
2018-09-15T01:31:46.960Z,5.13
2018-09-15T01:34:17.914Z,4.90
2018-09-15T01:36:49.564Z,5.43
2018-09-15T01:39:20.397Z,5.30
2018-09-15T01:41:51.784Z,4.70
2018-09-15T01:44:22.085Z,4.93
2018-09-15T01:46:52.019Z,4.60
2018-09-15T01:49:23.449Z,4.50
2018-09-15T01:51:53.966Z,4.30
2018-09-15T01:54:24.361Z,5.00
2018-09-15T01:56:54.457Z,4.57
2018-09-15T01:59:24.772Z,4.67
2018-09-15T02:01:55.380Z,4.23
2018-09-15T02:04:26.443Z,4.40
2018-09-15T02:06:56.008Z,4.37
2018-09-15T02:09:26.765Z,4.33
2018-09-15T02:11:56.662Z,4.57
2018-09-15T02:14:26.909Z,4.43
2018-09-15T02:16:59.992Z,4.30
2018-09-15T02:19:30.245Z,4.67
2018-09-15T02:22:00.888Z,4.70
2018-09-15T02:24:31.603Z,4.43
2018-09-15T02:27:01.583Z,4.07
2018-09-15T02:29:31.683Z,4.47
2018-09-15T02:32:02.514Z,3.93
2018-09-15T02:34:32.861Z,4.50
2018-09-15T02:37:04.102Z,4.60
2018-09-15T02:39:35.155Z,4.57
2018-09-15T02:42:05.212Z,4.83
2018-09-15T02:44:35.508Z,5.37
2018-09-15T02:47:06.021Z,4.67
2018-09-15T02:49:35.967Z,5.00
2018-09-15T02:52:06.180Z,4.67
2018-09-15T02:54:36.470Z,4.70
2018-09-15T02:57:06.482Z,5.00
2018-09-15T02:59:36.251Z,4.47
2018-09-15T03:02:07.281Z,4.60
2018-09-15T03:04:37.711Z,4.57
2018-09-15T03:07:07.756Z,4.50
2018-09-15T03:09:38.196Z,4.60
2018-09-15T03:12:08.305Z,4.80
2018-09-15T03:14:38.250Z,4.80
2018-09-15T03:17:09.351Z,5.17
2018-09-15T03:19:39.381Z,5.10
2018-09-15T03:22:11.322Z,5.10
2018-09-15T03:24:42.911Z,5.03
2018-09-15T03:27:14.321Z,5.20
2018-09-15T03:29:47.832Z,5.43
2018-09-15T03:32:18.702Z,4.80
2018-09-15T03:34:49.043Z,5.03
2018-09-15T03:37:19.744Z,4.90
2018-09-15T03:39:49.956Z,5.50
2018-09-15T03:42:22.473Z,4.73
2018-09-15T03:44:53.396Z,4.97
2018-09-15T03:47:23.036Z,4.93
2018-09-15T03:49:54.069Z,5.00
2018-09-15T03:52:24.355Z,5.73
2018-09-15T03:54:55.065Z,5.73
2018-09-15T03:57:26.086Z,5.27
2018-09-15T03:59:55.897Z,5.90
2018-09-15T04:02:26.199Z,5.93
2018-09-15T04:04:56.250Z,6.10
2018-09-15T04:07:26.807Z,6.20
2018-09-15T04:09:56.969Z,6.50
2018-09-15T04:12:26.817Z,6.47
2018-09-15T04:14:58.828Z,6.70
2018-09-15T04:17:29.916Z,6.23
2018-09-15T04:19:59.973Z,6.20
2018-09-15T04:22:30.220Z,6.80
2018-09-15T04:25:00.836Z,6.47
2018-09-15T04:27:31.393Z,6.17
2018-09-15T04:30:02.185Z,6.60
2018-09-15T04:32:33.308Z,6.60
2018-09-15T04:35:03.929Z,7.20
2018-09-15T04:37:34.000Z,6.50
2018-09-15T04:40:04.932Z,6.50
2018-09-15T04:42:35.004Z,6.43
2018-09-15T04:45:04.944Z,6.17
2018-09-15T04:47:35.884Z,6.30
2018-09-15T04:50:08.361Z,6.70
2018-09-15T04:52:38.478Z,7.60
2018-09-15T04:55:10.375Z,7.37
2018-09-15T04:57:40.475Z,7.50
2018-09-15T05:00:10.760Z,7.70
2018-09-15T05:02:41.331Z,7.97
2018-09-15T05:05:11.142Z,7.80
2018-09-15T05:07:41.096Z,6.90
2018-09-15T05:10:11.725Z,6.80
2018-09-15T05:12:42.067Z,7.63
2018-09-15T05:15:12.551Z,7.80
2018-09-15T05:17:43.159Z,7.30
2018-09-15T05:20:13.817Z,7.30
2018-09-15T05:22:44.168Z,8.00
2018-09-15T05:25:14.609Z,8.50
2018-09-15T05:27:44.646Z,6.83
2018-09-15T05:30:14.974Z,8.17
2018-09-15T05:32:45.423Z,8.87
2018-09-15T05:35:15.608Z,9.17
2018-09-15T05:37:45.892Z,8.77
2018-09-15T05:40:16.116Z,7.33
2018-09-15T05:42:48.388Z,9.03
2018-09-15T05:45:19.500Z,8.60
2018-09-15T05:47:49.615Z,8.80
2018-09-15T05:50:19.645Z,8.13
2018-09-15T05:52:50.204Z,7.93
2018-09-15T05:55:20.898Z,7.67
2018-09-15T05:57:51.848Z,8.10
2018-09-15T06:00:23.243Z,8.13
2018-09-15T06:02:55.716Z,7.80
2018-09-15T06:05:26.029Z,6.87
2018-09-15T06:07:56.401Z,7.97
2018-09-15T06:10:29.128Z,7.53
2018-09-15T06:12:59.132Z,6.57
2018-09-15T06:15:28.919Z,6.87
2018-09-15T06:17:59.745Z,8.03
2018-09-15T06:20:30.140Z,7.60
2018-09-15T06:23:02.141Z,7.27
2018-09-15T06:25:32.254Z,7.40
2018-09-15T06:28:03.523Z,7.40
2018-09-15T06:30:38.335Z,7.50
2018-09-15T06:33:09.935Z,8.17
2018-09-15T06:35:41.448Z,8.60
2018-09-15T06:38:16.047Z,8.00
2018-09-15T06:40:50.005Z,7.47
2018-09-15T06:43:25.469Z,8.53
2018-09-15T06:45:58.021Z,7.90
2018-09-15T06:48:32.520Z,7.13
2018-09-15T06:51:05.300Z,8.30
2018-09-15T06:53:37.831Z,8.03
2018-09-15T06:56:10.270Z,7.83
2018-09-15T06:58:40.632Z,7.80
2018-09-15T07:01:11.985Z,8.27
2018-09-15T07:03:41.967Z,7.37
2018-09-15T07:06:13.673Z,8.23
2018-09-15T07:08:44.052Z,7.70
2018-09-15T07:11:15.142Z,8.33
2018-09-15T07:13:45.855Z,7.80
2018-09-15T07:16:17.736Z,7.70
2018-09-15T07:18:51.006Z,7.10
2018-09-15T07:21:21.817Z,7.77
2018-09-15T07:23:55.255Z,8.10
2018-09-15T07:26:25.743Z,7.57
2018-09-15T07:28:56.455Z,7.70
2018-09-15T07:31:27.829Z,9.07
2018-09-15T07:33:58.199Z,7.13
2018-09-15T07:36:28.983Z,8.30
2018-09-15T07:39:00.108Z,8.40
2018-09-15T07:41:30.606Z,7.63
2018-09-15T07:44:01.176Z,7.40
2018-09-15T07:46:31.138Z,7.27
2018-09-15T07:49:01.570Z,6.00
2018-09-15T07:51:33.936Z,5.67
2018-09-15T07:54:03.984Z,6.90
2018-09-15T07:56:36.673Z,5.83
2018-09-15T07:59:19.663Z,5.87
2018-09-15T08:01:50.076Z,5.70
2018-09-15T08:04:22.600Z,4.37
2018-09-15T08:06:54.376Z,5.03
2018-09-15T08:09:30.259Z,3.13
2018-09-15T08:12:02.469Z,2.57
2018-09-15T08:14:32.825Z,2.87
2018-09-15T08:17:05.490Z,2.60
2018-09-15T08:19:36.610Z,2.70
2018-09-15T08:22:09.692Z,2.40
2018-09-15T08:24:39.632Z,2.33
2018-09-15T08:27:11.434Z,2.37
2018-09-15T08:29:46.425Z,1.70
2018-09-15T08:32:18.334Z,2.07
2018-09-15T08:34:49.748Z,2.30
2018-09-15T08:37:26.345Z,2.43
2018-09-15T08:40:04.692Z,2.30
2018-09-15T08:42:35.661Z,2.17
2018-09-15T08:45:17.788Z,2.53
2018-09-15T08:47:51.034Z,1.90
2018-09-15T08:50:25.460Z,2.00
2018-09-15T08:53:05.424Z,2.10
2018-09-15T08:55:44.693Z,2.20
2018-09-15T08:58:18.672Z,1.80
2018-09-15T09:00:53.531Z,3.30
2018-09-15T09:03:27.223Z,2.00
2018-09-15T09:06:04.550Z,2.00
2018-09-15T09:08:36.712Z,1.87
2018-09-15T09:11:10.167Z,2.10
2018-09-15T09:13:44.059Z,2.17
2018-09-15T09:16:17.030Z,2.20
2018-09-15T09:18:48.107Z,1.90
2018-09-15T09:21:28.097Z,1.70
2018-09-15T09:24:03.516Z,1.50
2018-09-15T09:26:56.359Z,1.30
2018-09-15T09:29:46.211Z,1.70
2018-09-15T09:32:28.775Z,1.70
2018-09-15T09:35:01.580Z,1.50
2018-09-15T09:37:33.658Z,1.20
2018-09-15T09:40:06.773Z,1.87
2018-09-15T09:42:47.081Z,2.00
2018-09-15T09:45:25.222Z,1.77
2018-09-15T09:48:01.249Z,1.50
2018-09-15T09:50:36.434Z,1.67
2018-09-15T09:53:08.753Z,2.07
2018-09-15T09:55:38.930Z,1.50
2018-09-15T09:58:10.056Z,1.80
2018-09-15T10:00:48.297Z,1.17
2018-09-15T10:03:22.429Z,1.43
2018-09-15T10:06:01.637Z,1.40
2018-09-15T10:08:34.212Z,1.60
2018-09-15T10:11:05.783Z,1.40
2018-09-15T10:13:41.130Z,1.60
2018-09-15T10:16:13.687Z,1.20
2018-09-15T10:18:46.671Z,1.50
2018-09-15T10:21:20.790Z,1.30
2018-09-15T10:24:03.636Z,1.30
2018-09-15T10:26:35.129Z,1.37
2018-09-15T10:29:05.333Z,1.37
2018-09-15T10:31:40.274Z,1.83
2018-09-15T10:34:13.022Z,1.57
2018-09-15T10:36:46.458Z,1.33
2018-09-15T10:39:20.438Z,1.50
2018-09-15T10:42:04.900Z,1.50
2018-09-15T10:44:36.954Z,1.10
2018-09-15T10:47:07.991Z,1.20
2018-09-15T10:49:39.497Z,1.57
2018-09-15T10:52:10.444Z,1.20
2018-09-15T10:54:41.052Z,1.47
2018-09-15T10:57:14.660Z,1.33
2018-09-15T10:59:50.147Z,1.50
2018-09-15T11:02:21.128Z,1.40
2018-09-15T11:04:53.007Z,1.30
2018-09-15T11:07:23.471Z,1.40
2018-09-15T11:09:57.062Z,1.40
2018-09-15T11:12:29.562Z,1.70
2018-09-15T11:15:02.217Z,1.90
2018-09-15T11:17:34.735Z,1.53
2018-09-15T11:20:05.966Z,1.63
2018-09-15T11:22:38.118Z,1.47
2018-09-15T11:25:14.668Z,1.20
2018-09-15T11:27:47.380Z,1.37
2018-09-15T11:30:18.320Z,1.30
2018-09-15T11:32:49.618Z,1.30
2018-09-15T11:35:20.035Z,1.70
2018-09-15T11:37:51.709Z,1.80
2018-09-15T11:40:22.460Z,1.50
2018-09-15T11:42:55.480Z,1.30
2018-09-15T11:45:27.258Z,1.73
2018-09-15T11:47:58.954Z,1.37
2018-09-15T11:50:30.978Z,1.30
2018-09-15T11:53:04.751Z,1.43
2018-09-15T11:55:35.910Z,1.00
2018-09-15T11:58:06.295Z,0.93
2018-09-15T12:00:41.395Z,1.87
2018-09-15T12:03:12.221Z,1.30
2018-09-15T12:05:43.055Z,1.20
2018-09-15T12:08:15.095Z,1.17
2018-09-15T12:10:49.087Z,1.07
2018-09-15T12:13:21.236Z,1.43
2018-09-15T12:15:52.801Z,1.27
2018-09-15T12:18:23.969Z,1.10
2018-09-15T12:20:54.898Z,1.10
2018-09-15T12:23:25.809Z,1.13
2018-09-15T12:25:57.109Z,1.20
2018-09-15T12:28:27.939Z,1.00
2018-09-15T12:30:58.660Z,1.10
2018-09-15T12:33:30.078Z,1.23
2018-09-15T12:36:00.848Z,1.13
2018-09-15T12:38:33.779Z,1.23
2018-09-15T12:41:04.271Z,1.10
2018-09-15T12:43:34.718Z,1.03
2018-09-15T12:46:10.044Z,1.00
2018-09-15T12:48:47.609Z,1.00
2018-09-15T12:51:18.198Z,1.20
2018-09-15T12:53:49.927Z,0.97
2018-09-15T12:56:19.836Z,1.10
2018-09-15T12:58:51.083Z,1.37
2018-09-15T13:01:21.783Z,1.47
2018-09-15T13:03:53.147Z,1.00
2018-09-15T13:06:25.923Z,1.23
2018-09-15T13:08:57.697Z,1.20
2018-09-15T13:11:31.484Z,1.10
2018-09-15T13:14:02.148Z,1.37
2018-09-15T13:16:32.094Z,1.50
2018-09-15T13:19:03.281Z,1.20
2018-09-15T13:21:36.816Z,1.40
2018-09-15T13:24:07.034Z,1.13
2018-09-15T13:26:38.671Z,1.10
2018-09-15T13:29:13.761Z,1.20
2018-09-15T13:31:45.033Z,1.10
2018-09-15T13:34:25.035Z,1.20
2018-09-15T13:36:58.297Z,1.30
2018-09-15T13:39:30.356Z,1.60
2018-09-15T13:42:00.887Z,1.50
2018-09-15T13:44:33.139Z,1.40
2018-09-15T13:47:05.002Z,1.27
2018-09-15T13:49:40.939Z,1.40
2018-09-15T13:52:13.533Z,1.20
2018-09-15T13:54:45.067Z,1.27
2018-09-15T13:57:16.289Z,1.20
2018-09-15T13:59:47.414Z,1.30
2018-09-15T14:02:17.889Z,1.20
2018-09-15T14:04:48.088Z,1.40
2018-09-15T14:07:18.885Z,1.40
2018-09-15T14:09:49.356Z,1.30
2018-09-15T14:12:21.178Z,1.13
2018-09-15T14:14:52.309Z,1.13
2018-09-15T14:17:22.141Z,1.40
2018-09-15T14:19:52.575Z,1.27
2018-09-15T14:22:22.697Z,1.30
2018-09-15T14:24:53.299Z,1.23
2018-09-15T14:27:23.249Z,1.20
2018-09-15T14:29:54.105Z,1.20
2018-09-15T14:32:25.110Z,1.00
2018-09-15T14:34:54.951Z,1.10
2018-09-15T14:37:25.518Z,1.50
2018-09-15T14:40:01.751Z,1.30
2018-09-15T14:42:32.162Z,0.90
2018-09-15T14:45:03.362Z,1.20
2018-09-15T14:47:33.184Z,1.10
2018-09-15T14:50:10.504Z,1.23
2018-09-15T14:52:40.729Z,1.27
2018-09-15T14:55:12.963Z,1.40
2018-09-15T14:57:43.143Z,1.10
2018-09-15T15:00:15.616Z,1.40
2018-09-15T15:02:51.098Z,1.00
2018-09-15T15:05:21.642Z,1.27
2018-09-15T15:07:52.620Z,1.10
2018-09-15T15:10:22.684Z,1.33
2018-09-15T15:12:53.170Z,1.20
2018-09-15T15:15:24.132Z,1.20
2018-09-15T15:17:55.114Z,1.00
2018-09-15T15:20:26.362Z,1.53
2018-09-15T15:22:56.262Z,1.17
2018-09-15T15:25:26.230Z,1.43
2018-09-15T15:27:56.779Z,1.30
2018-09-15T15:30:27.673Z,1.40
2018-09-15T15:32:58.305Z,1.50
2018-09-15T15:35:31.354Z,1.40
2018-09-15T15:38:03.039Z,1.40
2018-09-15T15:40:33.858Z,1.57
2018-09-15T15:43:04.252Z,1.37
2018-09-15T15:45:34.254Z,1.37
2018-09-15T15:48:04.213Z,1.30
2018-09-15T15:50:34.870Z,1.27
2018-09-15T15:53:09.322Z,1.53
2018-09-15T15:55:40.526Z,1.50
2018-09-15T15:58:12.680Z,1.67
2018-09-15T16:00:45.402Z,1.50
2018-09-15T16:03:16.697Z,1.53
2018-09-15T16:05:50.087Z,1.40
2018-09-15T16:08:20.273Z,1.60
2018-09-15T16:10:50.403Z,1.60
2018-09-15T16:13:21.592Z,1.50
2018-09-15T16:15:52.811Z,1.40
2018-09-15T16:18:22.748Z,1.23
2018-09-15T16:20:54.700Z,1.60
2018-09-15T16:23:24.778Z,1.30
2018-09-15T16:25:55.609Z,1.50
2018-09-15T16:28:26.128Z,1.90
2018-09-15T16:30:58.121Z,2.67
2018-09-15T16:33:28.534Z,1.80
2018-09-15T16:35:58.936Z,1.47
2018-09-15T16:38:30.581Z,2.10
2018-09-15T16:41:01.585Z,2.87
2018-09-15T16:43:31.788Z,1.50
2018-09-15T16:46:02.118Z,1.70
2018-09-15T16:48:33.696Z,1.40
2018-09-15T16:51:03.746Z,1.83
2018-09-15T16:53:36.522Z,1.90
2018-09-15T16:56:10.056Z,1.90
2018-09-15T16:58:41.148Z,1.70
2018-09-15T17:04:52.037Z,1.97
2018-09-15T17:07:27.599Z,1.80
2018-09-15T17:10:06.006Z,2.13
2018-09-15T17:12:37.140Z,1.97
2018-09-15T17:15:14.963Z,1.93
2018-09-15T17:17:52.805Z,2.27
2018-09-15T17:20:43.292Z,1.70
2018-09-15T17:23:20.553Z,2.40
2018-09-15T17:25:59.126Z,1.80
2018-09-15T17:28:32.367Z,1.97
2018-09-15T17:31:04.543Z,2.07
2018-09-15T17:33:41.116Z,2.60
2018-09-15T17:36:13.346Z,2.07
2018-09-15T17:38:45.625Z,2.20
2018-09-15T17:41:16.083Z,1.80
2018-09-15T17:43:48.262Z,2.73
2018-09-15T17:46:19.498Z,1.90
2018-09-15T17:48:49.253Z,1.77
2018-09-15T17:51:19.093Z,2.40
2018-09-15T17:53:49.073Z,2.40
2018-09-15T17:56:20.037Z,2.60
2018-09-15T17:58:50.145Z,2.27
2018-09-15T18:01:21.686Z,3.50
2018-09-15T18:03:51.438Z,3.20
2018-09-15T18:06:21.774Z,2.80
2018-09-15T18:08:51.913Z,3.30
2018-09-15T18:11:24.512Z,4.10
2018-09-15T18:13:57.358Z,4.20
2018-09-15T18:16:28.719Z,4.50
2018-09-15T18:18:58.923Z,4.47
2018-09-15T18:25:01.113Z,3.63
2018-09-15T18:27:32.859Z,3.23
2018-09-15T18:30:03.259Z,3.30
2018-09-15T18:32:35.119Z,3.40
2018-09-15T18:35:07.129Z,3.90
2018-09-15T18:37:36.924Z,4.27
2018-09-15T18:40:07.188Z,3.93
2018-09-15T18:42:42.232Z,4.00
2018-09-15T18:45:17.330Z,3.80
2018-09-15T18:47:47.954Z,4.07
2018-09-15T18:50:19.557Z,4.00
2018-09-15T18:52:52.353Z,4.40
2018-09-15T18:55:24.878Z,4.10
2018-09-15T18:57:55.582Z,4.80
2018-09-15T19:00:27.889Z,4.77
2018-09-15T19:02:59.639Z,4.07
2018-09-15T19:05:32.091Z,4.27
2018-09-15T19:08:06.819Z,4.67
2018-09-15T19:10:37.237Z,4.40
2018-09-15T19:13:09.245Z,4.23
2018-09-15T19:15:42.484Z,3.90
2018-09-15T19:18:15.389Z,3.93
2018-09-15T19:20:46.645Z,3.97
2018-09-15T19:23:19.930Z,3.60
2018-09-15T19:25:52.244Z,4.10
2018-09-15T19:28:28.091Z,3.70
2018-09-15T19:31:00.584Z,3.60
2018-09-15T19:33:33.452Z,3.97
2018-09-15T19:36:07.820Z,3.63
2018-09-15T19:38:39.656Z,4.70
2018-09-15T19:41:12.601Z,3.57
2018-09-15T19:43:50.988Z,3.83
2018-09-15T19:46:24.962Z,3.80
2018-09-15T19:48:56.133Z,4.20
2018-09-15T19:51:27.543Z,4.13
2018-09-15T19:54:02.942Z,4.50
2018-09-15T19:56:34.447Z,4.40
2018-09-15T19:59:06.623Z,4.43
2018-09-15T20:01:41.477Z,4.07
2018-09-15T20:04:14.246Z,4.13
2018-09-15T20:06:55.835Z,4.07
2018-09-15T20:09:31.969Z,4.20
2018-09-15T20:12:04.790Z,4.53
2018-09-15T20:14:38.042Z,4.53
2018-09-15T20:17:08.177Z,5.07
2018-09-15T20:19:38.027Z,4.70
2018-09-15T20:22:12.631Z,4.23
2018-09-15T20:24:45.619Z,4.40
2018-09-15T20:27:17.572Z,3.97
2018-09-15T20:29:52.162Z,4.30
2018-09-15T20:32:27.533Z,3.73
2018-09-15T20:35:00.205Z,4.33
2018-09-15T20:37:32.676Z,3.77
2018-09-15T20:40:03.843Z,4.10
2018-09-15T20:42:35.061Z,3.80
2018-09-15T20:45:09.466Z,4.20
2018-09-15T20:47:41.449Z,3.77
2018-09-15T20:50:13.757Z,3.70
2018-09-15T20:52:45.398Z,4.13
2018-09-15T20:55:15.385Z,4.27
2018-09-15T20:57:45.627Z,3.03
2018-09-15T21:00:15.564Z,3.27
2018-09-15T21:02:45.452Z,3.07
2018-09-15T21:05:16.201Z,3.07
2018-09-15T21:07:46.602Z,3.10
2018-09-15T21:10:17.544Z,3.47
2018-09-15T21:12:47.712Z,3.73
2018-09-15T21:15:17.751Z,3.37
2018-09-15T21:17:48.341Z,3.80
2018-09-15T21:20:18.425Z,3.27
2018-09-15T21:22:48.389Z,3.50
2018-09-15T21:25:19.725Z,3.30
2018-09-15T21:27:49.621Z,3.07
2018-09-15T21:30:19.609Z,3.20
2018-09-15T21:32:50.191Z,3.70
2018-09-15T21:35:20.098Z,4.27
2018-09-15T21:37:50.581Z,4.17
2018-09-15T21:40:21.101Z,4.00
2018-09-15T21:42:51.918Z,3.47
2018-09-15T21:45:22.286Z,3.83
2018-09-15T21:47:52.713Z,4.07
2018-09-15T21:50:24.464Z,3.77
2018-09-15T21:52:56.129Z,2.97
2018-09-15T21:55:27.197Z,3.40
2018-09-15T21:57:57.132Z,3.43
2018-09-15T22:00:27.233Z,2.80
2018-09-15T22:02:58.099Z,3.47
2018-09-15T22:05:29.402Z,2.70
2018-09-15T22:07:59.332Z,2.90
2018-09-15T22:10:30.378Z,3.80
2018-09-15T22:13:02.066Z,3.20
2018-09-15T22:17:38.747Z,3.53
2018-09-15T22:20:08.868Z,3.33
2018-09-15T22:22:39.783Z,3.30
2018-09-15T22:25:10.902Z,3.33
2018-09-15T22:27:41.175Z,3.30
2018-09-15T22:30:12.034Z,3.93
2018-09-15T22:32:43.559Z,3.50
2018-09-15T22:35:14.388Z,3.70
2018-09-15T22:37:44.684Z,3.33
2018-09-15T22:40:14.948Z,3.43
2018-09-15T22:42:47.958Z,3.00
2018-09-15T22:45:18.224Z,3.03
2018-09-15T22:47:48.545Z,3.40
2018-09-15T22:50:19.855Z,3.30
2018-09-15T22:52:50.406Z,3.20
2018-09-15T22:55:20.401Z,3.30
2018-09-15T22:57:52.429Z,3.30
2018-09-15T23:00:24.760Z,3.60
2018-09-15T23:02:55.158Z,3.00
2018-09-15T23:05:25.825Z,2.50
2018-09-15T23:07:57.054Z,3.50
2018-09-15T23:10:27.647Z,2.87
2018-09-15T23:12:59.186Z,3.20
2018-09-15T23:15:29.005Z,2.83
2018-09-15T23:18:01.160Z,3.30
2018-09-15T23:20:31.077Z,3.50
2018-09-15T23:23:02.157Z,3.03
2018-09-15T23:25:32.753Z,2.83
2018-09-15T23:28:04.863Z,2.90
2018-09-15T23:30:35.509Z,3.23
2018-09-15T23:33:07.733Z,3.00
2018-09-15T23:35:39.443Z,2.80
2018-09-15T23:38:10.394Z,3.20
2018-09-15T23:40:40.868Z,3.07
2018-09-15T23:43:14.059Z,3.63
2018-09-15T23:45:44.040Z,3.33
2018-09-15T23:48:14.326Z,3.40
2018-09-15T23:50:44.943Z,3.97
2018-09-15T23:53:16.252Z,3.20
2018-09-15T23:55:48.807Z,2.90
2018-09-15T23:58:19.123Z,3.10
